sensor_id;sensor_type;location;lat;lon;timestamp;P1;durP1;ratioP1;P2;durP2;ratioP2
15474;SDS011;7839;50.462;9.678;2023-04-25T00:04:15;2.23;;;2.00;;
15474;SDS011;7839;50.462;9.678;2023-04-25T00:10:56;2.20;;;2.10;;
15474;SDS011;7839;50.462;9.678;2023-04-25T00:17:36;2.43;;;2.17;;
15474;SDS011;7839;50.462;9.678;2023-04-25T00:24:18;2.37;;;2.17;;
15474;SDS011;7839;50.462;9.678;2023-04-25T00:30:58;2.27;;;2.17;;
15474;SDS011;7839;50.462;9.678;2023-04-25T00:37:38;4.53;;;2.03;;
15474;SDS011;7839;50.462;9.678;2023-04-25T00:44:18;2.10;;;2.00;;
15474;SDS011;7839;50.462;9.678;2023-04-25T00:50:59;1.87;;;1.77;;
15474;SDS011;7839;50.462;9.678;2023-04-25T00:57:39;2.37;;;2.17;;
15474;SDS011;7839;50.462;9.678;2023-04-25T01:04:20;2.20;;;2.10;;
15474;SDS011;7839;50.462;9.678;2023-04-25T01:11:01;1.80;;;1.70;;
15474;SDS011;7839;50.462;9.678;2023-04-25T01:17:41;1.70;;;1.60;;
15474;SDS011;7839;50.462;9.678;2023-04-25T01:24:22;2.13;;;1.90;;
15474;SDS011;7839;50.462;9.678;2023-04-25T01:31:03;2.17;;;1.97;;
15474;SDS011;7839;50.462;9.678;2023-04-25T01:37:44;2.73;;;1.70;;
15474;SDS011;7839;50.462;9.678;2023-04-25T01:44:24;1.50;;;1.40;;
15474;SDS011;7839;50.462;9.678;2023-04-25T01:51:05;1.60;;;1.50;;
15474;SDS011;7839;50.462;9.678;2023-04-25T01:57:45;1.50;;;1.40;;
15474;SDS011;7839;50.462;9.678;2023-04-25T02:04:25;1.63;;;1.43;;
15474;SDS011;7839;50.462;9.678;2023-04-25T02:11:06;1.43;;;1.33;;
15474;SDS011;7839;50.462;9.678;2023-04-25T02:17:46;1.50;;;1.40;;
15474;SDS011;7839;50.462;9.678;2023-04-25T02:24:27;1.43;;;1.33;;
15474;SDS011;7839;50.462;9.678;2023-04-25T02:31:07;1.27;;;1.10;;
15474;SDS011;7839;50.462;9.678;2023-04-25T02:37:48;1.43;;;1.33;;
15474;SDS011;7839;50.462;9.678;2023-04-25T02:44:28;1.70;;;1.60;;
15474;SDS011;7839;50.462;9.678;2023-04-25T02:51:08;1.23;;;1.10;;
15474;SDS011;7839;50.462;9.678;2023-04-25T02:57:48;2.00;;;1.10;;
15474;SDS011;7839;50.462;9.678;2023-04-25T03:04:28;1.30;;;1.30;;
15474;SDS011;7839;50.462;9.678;2023-04-25T03:11:09;1.10;;;1.10;;
15474;SDS011;7839;50.462;9.678;2023-04-25T03:17:49;1.20;;;1.20;;
15474;SDS011;7839;50.462;9.678;2023-04-25T03:24:29;1.30;;;1.10;;
15474;SDS011;7839;50.462;9.678;2023-04-25T03:31:10;1.17;;;1.17;;
15474;SDS011;7839;50.462;9.678;2023-04-25T03:37:50;5.63;;;4.67;;
15474;SDS011;7839;50.462;9.678;2023-04-25T03:44:30;7.43;;;5.30;;
15474;SDS011;7839;50.462;9.678;2023-04-25T03:51:10;9.77;;;5.27;;
15474;SDS011;7839;50.462;9.678;2023-04-25T03:57:50;7.57;;;5.20;;
15474;SDS011;7839;50.462;9.678;2023-04-25T04:04:31;6.27;;;4.60;;
15474;SDS011;7839;50.462;9.678;2023-04-25T04:11:11;8.27;;;4.17;;
15474;SDS011;7839;50.462;9.678;2023-04-25T04:17:51;7.30;;;4.33;;
15474;SDS011;7839;50.462;9.678;2023-04-25T04:24:31;3.47;;;3.17;;
15474;SDS011;7839;50.462;9.678;2023-04-25T04:31:12;2.80;;;2.33;;
15474;SDS011;7839;50.462;9.678;2023-04-25T04:37:55;7.03;;;3.47;;
15474;SDS011;7839;50.462;9.678;2023-04-25T04:44:37;4.10;;;3.63;;
15474;SDS011;7839;50.462;9.678;2023-04-25T04:51:19;6.97;;;4.00;;
15474;SDS011;7839;50.462;9.678;2023-04-25T04:58:00;4.23;;;3.37;;
15474;SDS011;7839;50.462;9.678;2023-04-25T05:04:40;6.07;;;3.30;;
15474;SDS011;7839;50.462;9.678;2023-04-25T05:11:21;6.80;;;3.83;;
15474;SDS011;7839;50.462;9.678;2023-04-25T05:18:01;7.27;;;3.60;;
15474;SDS011;7839;50.462;9.678;2023-04-25T05:24:42;7.40;;;3.57;;
15474;SDS011;7839;50.462;9.678;2023-04-25T05:31:22;6.77;;;3.10;;
15474;SDS011;7839;50.462;9.678;2023-04-25T05:38:02;2.63;;;2.43;;
15474;SDS011;7839;50.462;9.678;2023-04-25T05:44:42;1.70;;;1.60;;
15474;SDS011;7839;50.462;9.678;2023-04-25T05:51:22;2.37;;;1.83;;
15474;SDS011;7839;50.462;9.678;2023-04-25T05:58:03;2.27;;;1.80;;
15474;SDS011;7839;50.462;9.678;2023-04-25T06:04:43;1.70;;;1.47;;
15474;SDS011;7839;50.462;9.678;2023-04-25T06:11:23;2.13;;;1.23;;
15474;SDS011;7839;50.462;9.678;2023-04-25T06:18:03;2.00;;;1.40;;
15474;SDS011;7839;50.462;9.678;2023-04-25T06:24:44;1.83;;;1.63;;
15474;SDS011;7839;50.462;9.678;2023-04-25T06:31:25;2.70;;;1.30;;
15474;SDS011;7839;50.462;9.678;2023-04-25T06:38:06;4.67;;;2.90;;
15474;SDS011;7839;50.462;9.678;2023-04-25T06:44:46;2.97;;;2.67;;
15474;SDS011;7839;50.462;9.678;2023-04-25T06:51:26;6.47;;;2.50;;
15474;SDS011;7839;50.462;9.678;2023-04-25T06:58:09;3.90;;;2.47;;
15474;SDS011;7839;50.462;9.678;2023-04-25T07:04:49;4.07;;;2.10;;
15474;SDS011;7839;50.462;9.678;2023-04-25T07:11:30;4.07;;;1.97;;
15474;SDS011;7839;50.462;9.678;2023-04-25T07:18:10;3.40;;;2.80;;
15474;SDS011;7839;50.462;9.678;2023-04-25T07:24:50;5.47;;;3.17;;
15474;SDS011;7839;50.462;9.678;2023-04-25T07:31:34;2.23;;;2.13;;
15474;SDS011;7839;50.462;9.678;2023-04-25T07:38:14;5.80;;;3.50;;
15474;SDS011;7839;50.462;9.678;2023-04-25T07:44:54;3.60;;;2.87;;
15474;SDS011;7839;50.462;9.678;2023-04-25T07:51:35;6.53;;;4.30;;
15474;SDS011;7839;50.462;9.678;2023-04-25T07:58:15;5.20;;;4.13;;
15474;SDS011;7839;50.462;9.678;2023-04-25T08:04:55;3.90;;;3.00;;
15474;SDS011;7839;50.462;9.678;2023-04-25T08:11:35;4.47;;;2.70;;
15474;SDS011;7839;50.462;9.678;2023-04-25T08:18:16;5.10;;;2.90;;
15474;SDS011;7839;50.462;9.678;2023-04-25T08:24:56;3.53;;;3.13;;
15474;SDS011;7839;50.462;9.678;2023-04-25T08:31:36;4.90;;;3.00;;
15474;SDS011;7839;50.462;9.678;2023-04-25T08:38:17;2.50;;;2.30;;
15474;SDS011;7839;50.462;9.678;2023-04-25T08:44:57;3.13;;;1.80;;
15474;SDS011;7839;50.462;9.678;2023-04-25T08:51:45;2.40;;;1.60;;
15474;SDS011;7839;50.462;9.678;2023-04-25T08:58:27;1.70;;;1.60;;
15474;SDS011;7839;50.462;9.678;2023-04-25T09:05:07;2.30;;;2.10;;
15474;SDS011;7839;50.462;9.678;2023-04-25T09:11:50;2.90;;;1.60;;
15474;SDS011;7839;50.462;9.678;2023-04-25T09:18:30;4.17;;;1.80;;
15474;SDS011;7839;50.462;9.678;2023-04-25T09:25:11;2.00;;;1.80;;
15474;SDS011;7839;50.462;9.678;2023-04-25T09:31:52;3.87;;;1.70;;
15474;SDS011;7839;50.462;9.678;2023-04-25T09:38:32;2.73;;;1.83;;
15474;SDS011;7839;50.462;9.678;2023-04-25T09:45:20;2.23;;;1.90;;
15474;SDS011;7839;50.462;9.678;2023-04-25T09:52:01;1.60;;;1.27;;
15474;SDS011;7839;50.462;9.678;2023-04-25T09:58:41;2.40;;;1.60;;
15474;SDS011;7839;50.462;9.678;2023-04-25T10:05:21;3.20;;;1.80;;
15474;SDS011;7839;50.462;9.678;2023-04-25T10:12:02;2.77;;;1.93;;
15474;SDS011;7839;50.462;9.678;2023-04-25T10:18:43;1.37;;;1.27;;
15474;SDS011;7839;50.462;9.678;2023-04-25T10:25:23;2.40;;;1.63;;
15474;SDS011;7839;50.462;9.678;2023-04-25T10:32:03;2.10;;;1.50;;
15474;SDS011;7839;50.462;9.678;2023-04-25T10:38:45;2.17;;;1.70;;
15474;SDS011;7839;50.462;9.678;2023-04-25T10:45:25;2.33;;;1.80;;
15474;SDS011;7839;50.462;9.678;2023-04-25T10:58:52;2.37;;;2.17;;
15474;SDS011;7839;50.462;9.678;2023-04-25T11:05:42;4.57;;;2.53;;
15474;SDS011;7839;50.462;9.678;2023-04-25T11:12:25;4.10;;;2.00;;
15474;SDS011;7839;50.462;9.678;2023-04-25T11:19:05;4.03;;;1.90;;
15474;SDS011;7839;50.462;9.678;2023-04-25T11:25:45;4.17;;;2.00;;
15474;SDS011;7839;50.462;9.678;2023-04-25T11:32:25;1.70;;;1.60;;
15474;SDS011;7839;50.462;9.678;2023-04-25T11:39:05;8.17;;;3.93;;
15474;SDS011;7839;50.462;9.678;2023-04-25T11:45:47;2.97;;;1.90;;
15474;SDS011;7839;50.462;9.678;2023-04-25T11:52:43;6.97;;;2.07;;
15474;SDS011;7839;50.462;9.678;2023-04-25T11:59:24;2.97;;;2.20;;
15474;SDS011;7839;50.462;9.678;2023-04-25T12:06:05;4.57;;;1.73;;
15474;SDS011;7839;50.462;9.678;2023-04-25T12:12:46;4.47;;;1.97;;
15474;SDS011;7839;50.462;9.678;2023-04-25T12:19:31;4.03;;;1.70;;
15474;SDS011;7839;50.462;9.678;2023-04-25T12:26:12;4.53;;;2.73;;
15474;SDS011;7839;50.462;9.678;2023-04-25T12:32:53;5.67;;;2.63;;
15474;SDS011;7839;50.462;9.678;2023-04-25T12:39:33;4.37;;;2.27;;
15474;SDS011;7839;50.462;9.678;2023-04-25T12:46:13;6.73;;;2.63;;
15474;SDS011;7839;50.462;9.678;2023-04-25T12:52:53;6.77;;;2.20;;
15474;SDS011;7839;50.462;9.678;2023-04-25T12:59:34;6.50;;;2.33;;
15474;SDS011;7839;50.462;9.678;2023-04-25T13:06:14;5.83;;;2.53;;
15474;SDS011;7839;50.462;9.678;2023-04-25T13:12:55;5.27;;;2.30;;
15474;SDS011;7839;50.462;9.678;2023-04-25T13:19:35;5.03;;;2.43;;
15474;SDS011;7839;50.462;9.678;2023-04-25T13:26:15;3.63;;;2.60;;
15474;SDS011;7839;50.462;9.678;2023-04-25T13:32:56;9.33;;;2.70;;
15474;SDS011;7839;50.462;9.678;2023-04-25T13:39:37;5.77;;;2.20;;
15474;SDS011;7839;50.462;9.678;2023-04-25T13:46:17;7.27;;;2.23;;
15474;SDS011;7839;50.462;9.678;2023-04-25T13:52:57;5.03;;;1.63;;
15474;SDS011;7839;50.462;9.678;2023-04-25T13:59:38;3.00;;;1.53;;
15474;SDS011;7839;50.462;9.678;2023-04-25T14:06:19;4.43;;;1.90;;
15474;SDS011;7839;50.462;9.678;2023-04-25T14:13:02;6.90;;;2.17;;
15474;SDS011;7839;50.462;9.678;2023-04-25T14:19:43;3.13;;;1.77;;
15474;SDS011;7839;50.462;9.678;2023-04-25T14:26:25;2.23;;;1.73;;
15474;SDS011;7839;50.462;9.678;2023-04-25T14:33:05;6.13;;;1.97;;
15474;SDS011;7839;50.462;9.678;2023-04-25T14:39:46;5.35;;;2.42;;
15474;SDS011;7839;50.462;9.678;2023-04-25T14:46:26;7.03;;;2.50;;
15474;SDS011;7839;50.462;9.678;2023-04-25T14:53:06;5.00;;;2.00;;
15474;SDS011;7839;50.462;9.678;2023-04-25T14:59:46;2.43;;;1.53;;
15474;SDS011;7839;50.462;9.678;2023-04-25T15:06:27;5.47;;;2.20;;
15474;SDS011;7839;50.462;9.678;2023-04-25T15:13:08;2.93;;;1.67;;
15474;SDS011;7839;50.462;9.678;2023-04-25T15:19:50;4.07;;;1.53;;
15474;SDS011;7839;50.462;9.678;2023-04-25T15:26:30;8.33;;;1.80;;
15474;SDS011;7839;50.462;9.678;2023-04-25T15:33:10;4.80;;;2.03;;
15474;SDS011;7839;50.462;9.678;2023-04-25T15:40:00;5.57;;;1.77;;
15474;SDS011;7839;50.462;9.678;2023-04-25T15:46:41;4.50;;;1.53;;
15474;SDS011;7839;50.462;9.678;2023-04-25T15:53:23;2.63;;;1.60;;
15474;SDS011;7839;50.462;9.678;2023-04-25T16:00:04;6.63;;;2.20;;
15474;SDS011;7839;50.462;9.678;2023-04-25T16:06:49;6.30;;;2.43;;
15474;SDS011;7839;50.462;9.678;2023-04-25T16:13:30;3.73;;;1.80;;
15474;SDS011;7839;50.462;9.678;2023-04-25T16:20:12;8.10;;;1.80;;
15474;SDS011;7839;50.462;9.678;2023-04-25T16:26:53;6.93;;;2.80;;
15474;SDS011;7839;50.462;9.678;2023-04-25T16:33:33;6.03;;;2.23;;
15474;SDS011;7839;50.462;9.678;2023-04-25T16:40:14;3.77;;;1.97;;
15474;SDS011;7839;50.462;9.678;2023-04-25T16:46:55;4.10;;;1.97;;
15474;SDS011;7839;50.462;9.678;2023-04-25T16:53:35;5.83;;;2.77;;
15474;SDS011;7839;50.462;9.678;2023-04-25T17:00:16;6.00;;;1.87;;
15474;SDS011;7839;50.462;9.678;2023-04-25T17:06:57;4.87;;;2.37;;
15474;SDS011;7839;50.462;9.678;2023-04-25T17:13:37;10.43;;;4.17;;
15474;SDS011;7839;50.462;9.678;2023-04-25T17:20:17;4.87;;;1.97;;
15474;SDS011;7839;50.462;9.678;2023-04-25T17:26:57;2.57;;;1.13;;
15474;SDS011;7839;50.462;9.678;2023-04-25T17:33:38;3.17;;;1.90;;
15474;SDS011;7839;50.462;9.678;2023-04-25T17:40:18;5.63;;;2.40;;
15474;SDS011;7839;50.462;9.678;2023-04-25T17:46:58;5.47;;;1.87;;
15474;SDS011;7839;50.462;9.678;2023-04-25T17:53:40;4.20;;;1.70;;
15474;SDS011;7839;50.462;9.678;2023-04-25T18:00:20;5.67;;;2.00;;
15474;SDS011;7839;50.462;9.678;2023-04-25T18:07:00;6.00;;;2.60;;
15474;SDS011;7839;50.462;9.678;2023-04-25T18:13:40;7.67;;;3.27;;
15474;SDS011;7839;50.462;9.678;2023-04-25T18:20:23;4.57;;;2.70;;
15474;SDS011;7839;50.462;9.678;2023-04-25T18:27:03;5.40;;;2.60;;
15474;SDS011;7839;50.462;9.678;2023-04-25T18:33:44;1.60;;;1.50;;
15474;SDS011;7839;50.462;9.678;2023-04-25T18:40:26;2.60;;;1.70;;
15474;SDS011;7839;50.462;9.678;2023-04-25T18:47:06;2.60;;;1.43;;
15474;SDS011;7839;50.462;9.678;2023-04-25T18:53:47;2.00;;;1.80;;
15474;SDS011;7839;50.462;9.678;2023-04-25T19:00:27;2.00;;;1.57;;
15474;SDS011;7839;50.462;9.678;2023-04-25T19:07:08;1.73;;;1.40;;
15474;SDS011;7839;50.462;9.678;2023-04-25T19:13:48;1.40;;;1.30;;
15474;SDS011;7839;50.462;9.678;2023-04-25T19:20:29;1.93;;;1.30;;
15474;SDS011;7839;50.462;9.678;2023-04-25T19:27:09;1.90;;;1.55;;
15474;SDS011;7839;50.462;9.678;2023-04-25T19:33:49;1.23;;;1.13;;
15474;SDS011;7839;50.462;9.678;2023-04-25T19:40:30;1.53;;;1.27;;
15474;SDS011;7839;50.462;9.678;2023-04-25T19:47:10;1.40;;;1.27;;
15474;SDS011;7839;50.462;9.678;2023-04-25T19:53:51;3.97;;;1.70;;
15474;SDS011;7839;50.462;9.678;2023-04-25T20:00:32;1.13;;;0.90;;
15474;SDS011;7839;50.462;9.678;2023-04-25T20:07:12;1.73;;;1.37;;
15474;SDS011;7839;50.462;9.678;2023-04-25T20:13:53;0.87;;;0.87;;
15474;SDS011;7839;50.462;9.678;2023-04-25T20:20:33;1.93;;;1.10;;
15474;SDS011;7839;50.462;9.678;2023-04-25T20:27:13;7.10;;;3.30;;
15474;SDS011;7839;50.462;9.678;2023-04-25T20:33:53;4.67;;;3.00;;
15474;SDS011;7839;50.462;9.678;2023-04-25T20:40:42;2.97;;;1.60;;
15474;SDS011;7839;50.462;9.678;2023-04-25T20:47:23;5.60;;;1.87;;
15474;SDS011;7839;50.462;9.678;2023-04-25T20:54:03;2.00;;;1.60;;
15474;SDS011;7839;50.462;9.678;2023-04-25T21:00:43;2.63;;;1.60;;
15474;SDS011;7839;50.462;9.678;2023-04-25T21:07:26;2.87;;;1.70;;
15474;SDS011;7839;50.462;9.678;2023-04-25T21:14:06;1.47;;;1.33;;
15474;SDS011;7839;50.462;9.678;2023-04-25T21:20:46;4.70;;;1.90;;
15474;SDS011;7839;50.462;9.678;2023-04-25T21:27:26;4.10;;;1.40;;
15474;SDS011;7839;50.462;9.678;2023-04-25T21:34:07;1.10;;;1.07;;
15474;SDS011;7839;50.462;9.678;2023-04-25T21:40:47;2.43;;;0.90;;
15474;SDS011;7839;50.462;9.678;2023-04-25T21:47:28;1.10;;;1.00;;
15474;SDS011;7839;50.462;9.678;2023-04-25T21:54:08;1.50;;;0.87;;
15474;SDS011;7839;50.462;9.678;2023-04-25T22:00:49;2.40;;;1.10;;
15474;SDS011;7839;50.462;9.678;2023-04-25T22:07:29;0.90;;;0.90;;
15474;SDS011;7839;50.462;9.678;2023-04-25T22:14:09;1.00;;;0.83;;
15474;SDS011;7839;50.462;9.678;2023-04-25T22:20:50;0.73;;;0.73;;
15474;SDS011;7839;50.462;9.678;2023-04-25T22:27:30;0.80;;;0.80;;
15474;SDS011;7839;50.462;9.678;2023-04-25T22:34:11;1.07;;;0.67;;
15474;SDS011;7839;50.462;9.678;2023-04-25T22:40:52;1.03;;;0.90;;
15474;SDS011;7839;50.462;9.678;2023-04-25T22:47:35;1.73;;;0.60;;
15474;SDS011;7839;50.462;9.678;2023-04-25T22:54:16;1.30;;;0.73;;
15474;SDS011;7839;50.462;9.678;2023-04-25T23:00:57;0.60;;;0.60;;
15474;SDS011;7839;50.462;9.678;2023-04-25T23:07:37;0.70;;;0.60;;
15474;SDS011;7839;50.462;9.678;2023-04-25T23:14:19;0.80;;;0.70;;
15474;SDS011;7839;50.462;9.678;2023-04-25T23:21:00;0.80;;;0.60;;
15474;SDS011;7839;50.462;9.678;2023-04-25T23:27:41;0.50;;;0.40;;
15474;SDS011;7839;50.462;9.678;2023-04-25T23:34:22;0.57;;;0.53;;
15474;SDS011;7839;50.462;9.678;2023-04-25T23:41:02;1.00;;;0.60;;
15474;SDS011;7839;50.462;9.678;2023-04-25T23:47:42;0.77;;;0.77;;
15474;SDS011;7839;50.462;9.678;2023-04-25T23:54:22;0.90;;;0.70;;
